sensor_id;sensor_type;location;lat;lon;timestamp;P1;durP1;ratioP1;P2;durP2;ratioP2
12623;SDS011;6377;42.836;23.998;2023-02-25T00:01:27;21.13;;;10.97;;
12623;SDS011;6377;42.836;23.998;2023-02-25T00:03:56;18.87;;;9.40;;
12623;SDS011;6377;42.836;23.998;2023-02-25T00:06:25;19.73;;;8.43;;
12623;SDS011;6377;42.836;23.998;2023-02-25T00:08:53;26.80;;;8.60;;
12623;SDS011;6377;42.836;23.998;2023-02-25T00:11:23;18.70;;;8.50;;
12623;SDS011;6377;42.836;23.998;2023-02-25T00:13:54;18.53;;;8.73;;
12623;SDS011;6377;42.836;23.998;2023-02-25T00:16:22;23.20;;;10.23;;
12623;SDS011;6377;42.836;23.998;2023-02-25T00:18:53;19.00;;;10.33;;
12623;SDS011;6377;42.836;23.998;2023-02-25T00:21:21;24.93;;;13.43;;
12623;SDS011;6377;42.836;23.998;2023-02-25T00:23:50;28.20;;;12.77;;
12623;SDS011;6377;42.836;23.998;2023-02-25T00:26:18;18.27;;;10.73;;
12623;SDS011;6377;42.836;23.998;2023-02-25T00:28:47;25.40;;;13.63;;
12623;SDS011;6377;42.836;23.998;2023-02-25T00:31:16;16.27;;;10.40;;
12623;SDS011;6377;42.836;23.998;2023-02-25T00:33:45;21.80;;;12.20;;
12623;SDS011;6377;42.836;23.998;2023-02-25T00:36:14;20.47;;;9.37;;
12623;SDS011;6377;42.836;23.998;2023-02-25T00:38:44;25.03;;;11.10;;
12623;SDS011;6377;42.836;23.998;2023-02-25T00:41:13;17.77;;;8.20;;
12623;SDS011;6377;42.836;23.998;2023-02-25T00:43:42;15.40;;;8.10;;
12623;SDS011;6377;42.836;23.998;2023-02-25T00:46:15;23.43;;;10.07;;
12623;SDS011;6377;42.836;23.998;2023-02-25T00:48:43;21.70;;;11.53;;
12623;SDS011;6377;42.836;23.998;2023-02-25T00:51:11;18.97;;;9.57;;
12623;SDS011;6377;42.836;23.998;2023-02-25T00:53:40;19.00;;;10.53;;
12623;SDS011;6377;42.836;23.998;2023-02-25T00:56:09;17.87;;;9.53;;
12623;SDS011;6377;42.836;23.998;2023-02-25T00:58:40;21.47;;;9.60;;
12623;SDS011;6377;42.836;23.998;2023-02-25T01:01:16;17.57;;;10.40;;
12623;SDS011;6377;42.836;23.998;2023-02-25T01:03:45;18.40;;;10.00;;
12623;SDS011;6377;42.836;23.998;2023-02-25T01:06:14;21.73;;;12.03;;
12623;SDS011;6377;42.836;23.998;2023-02-25T01:08:41;15.50;;;8.03;;
12623;SDS011;6377;42.836;23.998;2023-02-25T01:11:10;20.60;;;8.13;;
12623;SDS011;6377;42.836;23.998;2023-02-25T01:13:39;22.80;;;10.47;;
12623;SDS011;6377;42.836;23.998;2023-02-25T01:16:11;17.23;;;7.93;;
12623;SDS011;6377;42.836;23.998;2023-02-25T01:18:41;17.10;;;9.77;;
12623;SDS011;6377;42.836;23.998;2023-02-25T01:21:13;14.73;;;7.47;;
12623;SDS011;6377;42.836;23.998;2023-02-25T01:23:43;16.50;;;7.37;;
12623;SDS011;6377;42.836;23.998;2023-02-25T01:26:11;14.23;;;7.47;;
12623;SDS011;6377;42.836;23.998;2023-02-25T01:28:39;22.20;;;10.07;;
12623;SDS011;6377;42.836;23.998;2023-02-25T01:31:06;15.60;;;7.70;;
12623;SDS011;6377;42.836;23.998;2023-02-25T01:33:43;19.53;;;8.37;;
12623;SDS011;6377;42.836;23.998;2023-02-25T01:36:10;16.23;;;7.87;;
12623;SDS011;6377;42.836;23.998;2023-02-25T01:38:37;26.67;;;8.03;;
12623;SDS011;6377;42.836;23.998;2023-02-25T01:41:05;12.13;;;6.47;;
12623;SDS011;6377;42.836;23.998;2023-02-25T01:43:32;19.17;;;6.73;;
12623;SDS011;6377;42.836;23.998;2023-02-25T01:46:00;20.00;;;7.47;;
12623;SDS011;6377;42.836;23.998;2023-02-25T01:48:28;18.17;;;7.20;;
12623;SDS011;6377;42.836;23.998;2023-02-25T01:51:01;14.83;;;6.87;;
12623;SDS011;6377;42.836;23.998;2023-02-25T01:53:32;21.20;;;8.20;;
12623;SDS011;6377;42.836;23.998;2023-02-25T01:56:05;15.43;;;8.00;;
12623;SDS011;6377;42.836;23.998;2023-02-25T01:58:35;14.33;;;7.53;;
12623;SDS011;6377;42.836;23.998;2023-02-25T02:01:02;17.83;;;7.50;;
12623;SDS011;6377;42.836;23.998;2023-02-25T02:03:33;16.20;;;8.00;;
12623;SDS011;6377;42.836;23.998;2023-02-25T02:06:03;14.23;;;8.27;;
12623;SDS011;6377;42.836;23.998;2023-02-25T02:08:36;15.93;;;7.53;;
12623;SDS011;6377;42.836;23.998;2023-02-25T02:11:04;17.53;;;7.90;;
12623;SDS011;6377;42.836;23.998;2023-02-25T02:13:32;17.33;;;7.40;;
12623;SDS011;6377;42.836;23.998;2023-02-25T02:18:54;16.00;;;6.87;;
12623;SDS011;6377;42.836;23.998;2023-02-25T02:21:31;17.77;;;7.30;;
12623;SDS011;6377;42.836;23.998;2023-02-25T02:27:20;14.77;;;6.83;;
12623;SDS011;6377;42.836;23.998;2023-02-25T02:30:02;15.27;;;7.33;;
12623;SDS011;6377;42.836;23.998;2023-02-25T02:32:44;16.13;;;6.77;;
12623;SDS011;6377;42.836;23.998;2023-02-25T02:35:19;18.87;;;6.97;;
12623;SDS011;6377;42.836;23.998;2023-02-25T02:37:57;18.90;;;7.23;;
12623;SDS011;6377;42.836;23.998;2023-02-25T02:40:38;16.90;;;7.33;;
12623;SDS011;6377;42.836;23.998;2023-02-25T02:43:18;18.50;;;7.43;;
12623;SDS011;6377;42.836;23.998;2023-02-25T02:45:55;16.57;;;7.23;;
12623;SDS011;6377;42.836;23.998;2023-02-25T02:48:28;16.00;;;6.93;;
12623;SDS011;6377;42.836;23.998;2023-02-25T02:51:00;18.57;;;6.50;;
12623;SDS011;6377;42.836;23.998;2023-02-25T02:53:30;16.17;;;7.13;;
12623;SDS011;6377;42.836;23.998;2023-02-25T02:56:02;18.30;;;7.47;;
12623;SDS011;6377;42.836;23.998;2023-02-25T02:58:31;12.53;;;5.87;;
12623;SDS011;6377;42.836;23.998;2023-02-25T03:01:03;15.30;;;6.20;;
12623;SDS011;6377;42.836;23.998;2023-02-25T03:03:35;15.30;;;4.87;;
12623;SDS011;6377;42.836;23.998;2023-02-25T03:06:07;19.40;;;5.83;;
12623;SDS011;6377;42.836;23.998;2023-02-25T03:08:39;18.60;;;6.77;;
12623;SDS011;6377;42.836;23.998;2023-02-25T03:11:10;15.70;;;5.73;;
12623;SDS011;6377;42.836;23.998;2023-02-25T03:13:38;15.17;;;6.13;;
12623;SDS011;6377;42.836;23.998;2023-02-25T03:16:06;14.67;;;6.43;;
12623;SDS011;6377;42.836;23.998;2023-02-25T03:18:41;15.93;;;6.93;;
12623;SDS011;6377;42.836;23.998;2023-02-25T03:21:17;18.43;;;7.37;;
12623;SDS011;6377;42.836;23.998;2023-02-25T03:23:46;16.40;;;6.40;;
12623;SDS011;6377;42.836;23.998;2023-02-25T03:26:17;18.13;;;6.87;;
12623;SDS011;6377;42.836;23.998;2023-02-25T03:28:48;13.83;;;6.20;;
12623;SDS011;6377;42.836;23.998;2023-02-25T03:31:16;23.20;;;11.30;;
12623;SDS011;6377;42.836;23.998;2023-02-25T03:33:50;17.10;;;6.40;;
12623;SDS011;6377;42.836;23.998;2023-02-25T03:36:20;22.83;;;11.77;;
12623;SDS011;6377;42.836;23.998;2023-02-25T03:38:53;22.67;;;10.20;;
12623;SDS011;6377;42.836;23.998;2023-02-25T03:41:25;24.97;;;13.13;;
12623;SDS011;6377;42.836;23.998;2023-02-25T03:43:59;20.13;;;10.67;;
12623;SDS011;6377;42.836;23.998;2023-02-25T03:46:29;23.60;;;10.87;;
12623;SDS011;6377;42.836;23.998;2023-02-25T03:49:01;24.63;;;10.97;;
12623;SDS011;6377;42.836;23.998;2023-02-25T03:51:30;20.53;;;11.73;;
12623;SDS011;6377;42.836;23.998;2023-02-25T03:54:01;20.93;;;9.00;;
12623;SDS011;6377;42.836;23.998;2023-02-25T03:56:28;18.57;;;7.70;;
12623;SDS011;6377;42.836;23.998;2023-02-25T03:58:56;15.40;;;7.23;;
12623;SDS011;6377;42.836;23.998;2023-02-25T04:01:23;23.10;;;9.70;;
12623;SDS011;6377;42.836;23.998;2023-02-25T04:03:55;20.93;;;9.90;;
12623;SDS011;6377;42.836;23.998;2023-02-25T04:06:24;24.77;;;10.00;;
12623;SDS011;6377;42.836;23.998;2023-02-25T04:08:51;22.97;;;10.40;;
12623;SDS011;6377;42.836;23.998;2023-02-25T04:11:18;28.57;;;11.27;;
12623;SDS011;6377;42.836;23.998;2023-02-25T04:13:46;22.70;;;12.40;;
12623;SDS011;6377;42.836;23.998;2023-02-25T04:16:13;20.07;;;10.93;;
12623;SDS011;6377;42.836;23.998;2023-02-25T04:18:40;16.97;;;10.87;;
12623;SDS011;6377;42.836;23.998;2023-02-25T04:21:08;25.00;;;13.37;;
12623;SDS011;6377;42.836;23.998;2023-02-25T04:23:51;27.27;;;13.73;;
12623;SDS011;6377;42.836;23.998;2023-02-25T04:26:19;28.00;;;17.83;;
12623;SDS011;6377;42.836;23.998;2023-02-25T04:28:46;27.80;;;14.97;;
12623;SDS011;6377;42.836;23.998;2023-02-25T04:31:13;26.67;;;15.00;;
12623;SDS011;6377;42.836;23.998;2023-02-25T04:33:41;25.43;;;13.43;;
12623;SDS011;6377;42.836;23.998;2023-02-25T04:36:20;23.53;;;12.83;;
12623;SDS011;6377;42.836;23.998;2023-02-25T04:38:54;23.70;;;13.30;;
12623;SDS011;6377;42.836;23.998;2023-02-25T04:41:22;29.30;;;12.57;;
12623;SDS011;6377;42.836;23.998;2023-02-25T04:43:50;22.43;;;12.80;;
12623;SDS011;6377;42.836;23.998;2023-02-25T04:46:18;27.67;;;13.20;;
12623;SDS011;6377;42.836;23.998;2023-02-25T04:48:45;26.23;;;12.27;;
12623;SDS011;6377;42.836;23.998;2023-02-25T04:51:13;21.23;;;12.30;;
12623;SDS011;6377;42.836;23.998;2023-02-25T04:53:40;28.60;;;16.63;;
12623;SDS011;6377;42.836;23.998;2023-02-25T04:56:09;38.13;;;18.23;;
12623;SDS011;6377;42.836;23.998;2023-02-25T04:58:37;30.00;;;18.20;;
12623;SDS011;6377;42.836;23.998;2023-02-25T05:01:06;35.67;;;20.03;;
12623;SDS011;6377;42.836;23.998;2023-02-25T05:03:35;50.23;;;24.73;;
12623;SDS011;6377;42.836;23.998;2023-02-25T05:06:03;50.73;;;25.30;;
12623;SDS011;6377;42.836;23.998;2023-02-25T05:08:32;43.97;;;23.27;;
12623;SDS011;6377;42.836;23.998;2023-02-25T05:11:00;44.00;;;20.93;;
12623;SDS011;6377;42.836;23.998;2023-02-25T05:13:29;36.53;;;19.57;;
12623;SDS011;6377;42.836;23.998;2023-02-25T05:16:03;49.07;;;24.73;;
12623;SDS011;6377;42.836;23.998;2023-02-25T05:18:33;52.20;;;26.70;;
12623;SDS011;6377;42.836;23.998;2023-02-25T05:21:01;40.53;;;21.43;;
12623;SDS011;6377;42.836;23.998;2023-02-25T05:23:29;40.00;;;23.30;;
12623;SDS011;6377;42.836;23.998;2023-02-25T05:25:56;29.00;;;13.40;;
12623;SDS011;6377;42.836;23.998;2023-02-25T05:28:24;27.00;;;12.00;;
12623;SDS011;6377;42.836;23.998;2023-02-25T05:30:53;22.00;;;9.43;;
12623;SDS011;6377;42.836;23.998;2023-02-25T05:33:21;18.70;;;7.33;;
12623;SDS011;6377;42.836;23.998;2023-02-25T05:35:49;51.67;;;29.63;;
12623;SDS011;6377;42.836;23.998;2023-02-25T05:38:16;30.57;;;12.67;;
12623;SDS011;6377;42.836;23.998;2023-02-25T05:40:43;28.10;;;13.30;;
12623;SDS011;6377;42.836;23.998;2023-02-25T05:43:10;92.27;;;65.47;;
12623;SDS011;6377;42.836;23.998;2023-02-25T05:45:38;34.23;;;14.80;;
12623;SDS011;6377;42.836;23.998;2023-02-25T05:48:06;28.27;;;12.63;;
12623;SDS011;6377;42.836;23.998;2023-02-25T05:50:33;31.80;;;19.73;;
12623;SDS011;6377;42.836;23.998;2023-02-25T05:53:05;38.27;;;23.77;;
12623;SDS011;6377;42.836;23.998;2023-02-25T05:55:33;35.40;;;18.37;;
12623;SDS011;6377;42.836;23.998;2023-02-25T05:58:00;36.03;;;16.07;;
12623;SDS011;6377;42.836;23.998;2023-02-25T06:00:28;29.67;;;15.83;;
12623;SDS011;6377;42.836;23.998;2023-02-25T06:02:55;35.83;;;18.97;;
12623;SDS011;6377;42.836;23.998;2023-02-25T06:05:24;44.77;;;30.90;;
12623;SDS011;6377;42.836;23.998;2023-02-25T06:07:54;45.77;;;24.70;;
12623;SDS011;6377;42.836;23.998;2023-02-25T06:10:22;57.30;;;32.27;;
12623;SDS011;6377;42.836;23.998;2023-02-25T06:12:49;65.30;;;34.90;;
12623;SDS011;6377;42.836;23.998;2023-02-25T06:15:17;106.27;;;54.23;;
12623;SDS011;6377;42.836;23.998;2023-02-25T06:17:45;71.90;;;37.73;;
12623;SDS011;6377;42.836;23.998;2023-02-25T06:22:42;84.57;;;42.67;;
12623;SDS011;6377;42.836;23.998;2023-02-25T06:27:37;120.43;;;60.33;;
12623;SDS011;6377;42.836;23.998;2023-02-25T06:30:05;109.10;;;58.87;;
12623;SDS011;6377;42.836;23.998;2023-02-25T06:32:33;80.73;;;49.00;;
12623;SDS011;6377;42.836;23.998;2023-02-25T06:35:00;49.37;;;26.20;;
12623;SDS011;6377;42.836;23.998;2023-02-25T06:37:27;26.47;;;13.47;;
12623;SDS011;6377;42.836;23.998;2023-02-25T06:39:56;37.80;;;20.20;;
12623;SDS011;6377;42.836;23.998;2023-02-25T06:42:23;26.77;;;14.63;;
12623;SDS011;6377;42.836;23.998;2023-02-25T06:44:51;28.77;;;14.60;;
12623;SDS011;6377;42.836;23.998;2023-02-25T06:47:18;28.43;;;13.20;;
12623;SDS011;6377;42.836;23.998;2023-02-25T06:49:47;29.83;;;16.67;;
12623;SDS011;6377;42.836;23.998;2023-02-25T06:52:14;19.03;;;8.20;;
12623;SDS011;6377;42.836;23.998;2023-02-25T06:54:41;15.83;;;6.20;;
12623;SDS011;6377;42.836;23.998;2023-02-25T06:57:10;18.87;;;6.93;;
12623;SDS011;6377;42.836;23.998;2023-02-25T06:59:37;18.00;;;5.80;;
12623;SDS011;6377;42.836;23.998;2023-02-25T07:02:05;17.77;;;8.17;;
12623;SDS011;6377;42.836;23.998;2023-02-25T07:04:32;15.73;;;5.67;;
12623;SDS011;6377;42.836;23.998;2023-02-25T07:06:59;20.50;;;6.70;;
12623;SDS011;6377;42.836;23.998;2023-02-25T07:09:27;16.33;;;6.50;;
12623;SDS011;6377;42.836;23.998;2023-02-25T07:11:54;26.97;;;8.70;;
12623;SDS011;6377;42.836;23.998;2023-02-25T07:14:23;19.10;;;7.60;;
12623;SDS011;6377;42.836;23.998;2023-02-25T07:16:50;15.03;;;5.53;;
12623;SDS011;6377;42.836;23.998;2023-02-25T07:19:18;21.60;;;8.40;;
12623;SDS011;6377;42.836;23.998;2023-02-25T07:21:45;21.83;;;9.43;;
12623;SDS011;6377;42.836;23.998;2023-02-25T07:24:13;23.93;;;11.27;;
12623;SDS011;6377;42.836;23.998;2023-02-25T07:26:41;41.70;;;20.60;;
12623;SDS011;6377;42.836;23.998;2023-02-25T07:29:08;38.00;;;15.00;;
12623;SDS011;6377;42.836;23.998;2023-02-25T07:31:36;24.73;;;10.83;;
12623;SDS011;6377;42.836;23.998;2023-02-25T07:34:04;23.97;;;8.17;;
12623;SDS011;6377;42.836;23.998;2023-02-25T07:36:31;26.40;;;10.10;;
12623;SDS011;6377;42.836;23.998;2023-02-25T07:39:01;20.40;;;9.27;;
12623;SDS011;6377;42.836;23.998;2023-02-25T07:41:30;24.57;;;11.03;;
12623;SDS011;6377;42.836;23.998;2023-02-25T07:43:58;22.80;;;7.30;;
12623;SDS011;6377;42.836;23.998;2023-02-25T07:46:25;22.17;;;9.03;;
12623;SDS011;6377;42.836;23.998;2023-02-25T07:48:53;15.37;;;7.07;;
12623;SDS011;6377;42.836;23.998;2023-02-25T07:51:22;26.57;;;12.13;;
12623;SDS011;6377;42.836;23.998;2023-02-25T07:53:51;43.03;;;16.13;;
12623;SDS011;6377;42.836;23.998;2023-02-25T07:56:20;28.63;;;14.27;;
12623;SDS011;6377;42.836;23.998;2023-02-25T07:58:48;24.33;;;9.63;;
12623;SDS011;6377;42.836;23.998;2023-02-25T08:01:17;21.73;;;7.10;;
12623;SDS011;6377;42.836;23.998;2023-02-25T08:03:47;21.73;;;9.17;;
12623;SDS011;6377;42.836;23.998;2023-02-25T08:06:16;18.27;;;7.87;;
12623;SDS011;6377;42.836;23.998;2023-02-25T08:08:45;33.13;;;15.47;;
12623;SDS011;6377;42.836;23.998;2023-02-25T08:11:15;44.37;;;15.27;;
12623;SDS011;6377;42.836;23.998;2023-02-25T08:13:42;67.43;;;35.47;;
12623;SDS011;6377;42.836;23.998;2023-02-25T08:16:10;25.00;;;8.30;;
12623;SDS011;6377;42.836;23.998;2023-02-25T08:18:39;15.87;;;4.73;;
12623;SDS011;6377;42.836;23.998;2023-02-25T08:21:07;22.10;;;5.67;;
12623;SDS011;6377;42.836;23.998;2023-02-25T08:23:36;26.03;;;8.10;;
12623;SDS011;6377;42.836;23.998;2023-02-25T08:26:05;30.43;;;8.43;;
12623;SDS011;6377;42.836;23.998;2023-02-25T08:28:35;29.17;;;12.80;;
12623;SDS011;6377;42.836;23.998;2023-02-25T08:31:02;19.50;;;8.50;;
12623;SDS011;6377;42.836;23.998;2023-02-25T08:33:32;24.93;;;10.17;;
12623;SDS011;6377;42.836;23.998;2023-02-25T08:36:04;28.23;;;11.10;;
12623;SDS011;6377;42.836;23.998;2023-02-25T08:38:34;30.03;;;10.97;;
12623;SDS011;6377;42.836;23.998;2023-02-25T08:41:03;17.37;;;6.73;;
12623;SDS011;6377;42.836;23.998;2023-02-25T08:43:32;22.53;;;6.90;;
12623;SDS011;6377;42.836;23.998;2023-02-25T08:45:59;12.43;;;5.50;;
12623;SDS011;6377;42.836;23.998;2023-02-25T08:48:26;19.23;;;5.80;;
12623;SDS011;6377;42.836;23.998;2023-02-25T08:50:54;16.00;;;6.40;;
12623;SDS011;6377;42.836;23.998;2023-02-25T08:53:21;18.40;;;5.80;;
12623;SDS011;6377;42.836;23.998;2023-02-25T08:55:49;22.40;;;6.73;;
12623;SDS011;6377;42.836;23.998;2023-02-25T08:58:19;23.20;;;8.47;;
12623;SDS011;6377;42.836;23.998;2023-02-25T09:00:46;23.33;;;9.40;;
12623;SDS011;6377;42.836;23.998;2023-02-25T09:03:16;16.13;;;6.40;;
12623;SDS011;6377;42.836;23.998;2023-02-25T09:05:43;20.17;;;5.03;;
12623;SDS011;6377;42.836;23.998;2023-02-25T09:08:17;22.97;;;9.63;;
12623;SDS011;6377;42.836;23.998;2023-02-25T09:10:45;25.63;;;10.90;;
12623;SDS011;6377;42.836;23.998;2023-02-25T09:13:13;26.00;;;8.63;;
12623;SDS011;6377;42.836;23.998;2023-02-25T09:15:43;53.23;;;25.63;;
12623;SDS011;6377;42.836;23.998;2023-02-25T09:18:10;21.17;;;6.70;;
12623;SDS011;6377;42.836;23.998;2023-02-25T09:20:37;23.77;;;6.00;;
12623;SDS011;6377;42.836;23.998;2023-02-25T09:23:04;24.80;;;10.83;;
12623;SDS011;6377;42.836;23.998;2023-02-25T09:25:32;20.53;;;8.00;;
12623;SDS011;6377;42.836;23.998;2023-02-25T09:27:59;20.60;;;7.03;;
12623;SDS011;6377;42.836;23.998;2023-02-25T09:30:26;25.83;;;9.90;;
12623;SDS011;6377;42.836;23.998;2023-02-25T09:32:55;37.83;;;14.93;;
12623;SDS011;6377;42.836;23.998;2023-02-25T09:35:22;29.93;;;8.07;;
12623;SDS011;6377;42.836;23.998;2023-02-25T09:37:49;18.93;;;8.03;;
12623;SDS011;6377;42.836;23.998;2023-02-25T09:40:17;34.17;;;10.77;;
12623;SDS011;6377;42.836;23.998;2023-02-25T09:42:48;32.40;;;9.37;;
12623;SDS011;6377;42.836;23.998;2023-02-25T09:45:28;32.23;;;12.80;;
12623;SDS011;6377;42.836;23.998;2023-02-25T09:48:01;25.07;;;8.33;;
12623;SDS011;6377;42.836;23.998;2023-02-25T09:50:35;31.07;;;8.63;;
12623;SDS011;6377;42.836;23.998;2023-02-25T09:53:09;23.57;;;8.10;;
12623;SDS011;6377;42.836;23.998;2023-02-25T09:55:42;25.83;;;9.83;;
12623;SDS011;6377;42.836;23.998;2023-02-25T09:58:16;30.63;;;10.80;;
12623;SDS011;6377;42.836;23.998;2023-02-25T10:00:52;22.20;;;6.43;;
12623;SDS011;6377;42.836;23.998;2023-02-25T10:03:37;21.13;;;7.57;;
12623;SDS011;6377;42.836;23.998;2023-02-25T10:06:13;27.50;;;12.83;;
12623;SDS011;6377;42.836;23.998;2023-02-25T10:08:46;26.33;;;9.07;;
12623;SDS011;6377;42.836;23.998;2023-02-25T10:11:25;32.17;;;15.93;;
12623;SDS011;6377;42.836;23.998;2023-02-25T10:14:05;22.83;;;8.20;;
12623;SDS011;6377;42.836;23.998;2023-02-25T10:16:46;21.00;;;7.87;;
12623;SDS011;6377;42.836;23.998;2023-02-25T10:19:26;27.43;;;6.47;;
12623;SDS011;6377;42.836;23.998;2023-02-25T10:22:15;26.53;;;8.70;;
12623;SDS011;6377;42.836;23.998;2023-02-25T10:24:56;19.33;;;7.30;;
12623;SDS011;6377;42.836;23.998;2023-02-25T10:27:29;18.73;;;6.30;;
12623;SDS011;6377;42.836;23.998;2023-02-25T10:30:00;17.10;;;6.33;;
12623;SDS011;6377;42.836;23.998;2023-02-25T10:32:33;29.67;;;12.43;;
12623;SDS011;6377;42.836;23.998;2023-02-25T10:35:11;22.87;;;8.20;;
12623;SDS011;6377;42.836;23.998;2023-02-25T10:37:41;24.63;;;8.33;;
12623;SDS011;6377;42.836;23.998;2023-02-25T10:40:12;20.47;;;8.00;;
12623;SDS011;6377;42.836;23.998;2023-02-25T10:42:42;27.30;;;10.37;;
12623;SDS011;6377;42.836;23.998;2023-02-25T10:45:16;25.77;;;8.63;;
12623;SDS011;6377;42.836;23.998;2023-02-25T10:47:48;25.30;;;9.83;;
12623;SDS011;6377;42.836;23.998;2023-02-25T10:50:23;16.10;;;7.20;;
12623;SDS011;6377;42.836;23.998;2023-02-25T10:52:52;23.93;;;7.83;;
12623;SDS011;6377;42.836;23.998;2023-02-25T10:55:26;15.20;;;7.23;;
12623;SDS011;6377;42.836;23.998;2023-02-25T10:58:18;13.47;;;4.93;;
12623;SDS011;6377;42.836;23.998;2023-02-25T11:01:09;17.03;;;5.97;;
12623;SDS011;6377;42.836;23.998;2023-02-25T11:03:46;20.20;;;6.30;;
12623;SDS011;6377;42.836;23.998;2023-02-25T11:06:24;21.83;;;6.40;;
12623;SDS011;6377;42.836;23.998;2023-02-25T11:08:54;17.73;;;6.90;;
12623;SDS011;6377;42.836;23.998;2023-02-25T11:11:24;104.30;;;31.67;;
12623;SDS011;6377;42.836;23.998;2023-02-25T11:13:53;45.73;;;15.10;;
12623;SDS011;6377;42.836;23.998;2023-02-25T11:16:25;142.53;;;46.70;;
12623;SDS011;6377;42.836;23.998;2023-02-25T11:18:54;71.57;;;25.80;;
12623;SDS011;6377;42.836;23.998;2023-02-25T11:21:32;31.83;;;12.57;;
12623;SDS011;6377;42.836;23.998;2023-02-25T11:24:03;25.80;;;10.73;;
12623;SDS011;6377;42.836;23.998;2023-02-25T11:26:36;162.20;;;43.77;;
12623;SDS011;6377;42.836;23.998;2023-02-25T11:29:08;72.13;;;29.97;;
12623;SDS011;6377;42.836;23.998;2023-02-25T11:31:39;65.80;;;32.43;;
12623;SDS011;6377;42.836;23.998;2023-02-25T11:34:12;29.73;;;10.07;;
12623;SDS011;6377;42.836;23.998;2023-02-25T11:36:43;22.47;;;7.93;;
12623;SDS011;6377;42.836;23.998;2023-02-25T11:39:15;27.27;;;13.00;;
12623;SDS011;6377;42.836;23.998;2023-02-25T11:41:44;24.90;;;9.43;;
12623;SDS011;6377;42.836;23.998;2023-02-25T11:44:23;18.97;;;6.93;;
12623;SDS011;6377;42.836;23.998;2023-02-25T11:46:57;17.20;;;7.53;;
12623;SDS011;6377;42.836;23.998;2023-02-25T11:49:31;18.97;;;8.73;;
12623;SDS011;6377;42.836;23.998;2023-02-25T11:52:10;26.50;;;9.00;;
12623;SDS011;6377;42.836;23.998;2023-02-25T11:54:45;13.20;;;5.37;;
12623;SDS011;6377;42.836;23.998;2023-02-25T11:57:24;21.87;;;6.47;;
12623;SDS011;6377;42.836;23.998;2023-02-25T12:00:04;19.63;;;7.53;;
12623;SDS011;6377;42.836;23.998;2023-02-25T12:02:46;25.40;;;10.47;;
12623;SDS011;6377;42.836;23.998;2023-02-25T12:05:25;16.00;;;6.63;;
12623;SDS011;6377;42.836;23.998;2023-02-25T12:08:15;49.67;;;26.93;;
12623;SDS011;6377;42.836;23.998;2023-02-25T12:20:29;19.73;;;7.67;;
12623;SDS011;6377;42.836;23.998;2023-02-25T12:23:37;20.50;;;7.07;;
12623;SDS011;6377;42.836;23.998;2023-02-25T12:26:32;27.03;;;13.17;;
12623;SDS011;6377;42.836;23.998;2023-02-25T12:29:15;20.53;;;7.03;;
12623;SDS011;6377;42.836;23.998;2023-02-25T12:32:06;30.17;;;12.60;;
12623;SDS011;6377;42.836;23.998;2023-02-25T12:37:47;29.80;;;12.60;;
12623;SDS011;6377;42.836;23.998;2023-02-25T12:40:51;18.10;;;7.97;;
12623;SDS011;6377;42.836;23.998;2023-02-25T12:43:33;22.80;;;11.33;;
12623;SDS011;6377;42.836;23.998;2023-02-25T12:46:19;16.67;;;7.77;;
12623;SDS011;6377;42.836;23.998;2023-02-25T12:49:03;20.47;;;7.60;;
12623;SDS011;6377;42.836;23.998;2023-02-25T12:55:03;22.67;;;7.83;;
12623;SDS011;6377;42.836;23.998;2023-02-25T12:57:56;18.73;;;7.93;;
12623;SDS011;6377;42.836;23.998;2023-02-25T13:00:41;17.20;;;7.33;;
12623;SDS011;6377;42.836;23.998;2023-02-25T13:03:34;18.63;;;7.67;;
12623;SDS011;6377;42.836;23.998;2023-02-25T13:06:25;20.13;;;7.57;;
12623;SDS011;6377;42.836;23.998;2023-02-25T13:09:20;22.27;;;7.63;;
12623;SDS011;6377;42.836;23.998;2023-02-25T13:12:12;20.47;;;7.03;;
12623;SDS011;6377;42.836;23.998;2023-02-25T13:14:57;17.90;;;7.43;;
12623;SDS011;6377;42.836;23.998;2023-02-25T13:17:38;18.57;;;7.00;;
12623;SDS011;6377;42.836;23.998;2023-02-25T13:20:25;18.07;;;8.07;;
12623;SDS011;6377;42.836;23.998;2023-02-25T13:23:25;16.70;;;6.40;;
12623;SDS011;6377;42.836;23.998;2023-02-25T13:29:22;12.83;;;6.80;;
12623;SDS011;6377;42.836;23.998;2023-02-25T13:32:07;16.20;;;5.93;;
12623;SDS011;6377;42.836;23.998;2023-02-25T13:34:43;15.13;;;5.00;;
12623;SDS011;6377;42.836;23.998;2023-02-25T13:37:21;17.80;;;6.60;;
12623;SDS011;6377;42.836;23.998;2023-02-25T13:40:29;21.07;;;5.70;;
12623;SDS011;6377;42.836;23.998;2023-02-25T13:43:12;18.33;;;6.07;;
12623;SDS011;6377;42.836;23.998;2023-02-25T13:46:13;15.07;;;5.87;;
12623;SDS011;6377;42.836;23.998;2023-02-25T13:58:48;13.47;;;5.90;;
12623;SDS011;6377;42.836;23.998;2023-02-25T14:01:28;14.67;;;5.30;;
12623;SDS011;6377;42.836;23.998;2023-02-25T14:04:21;14.73;;;8.33;;
12623;SDS011;6377;42.836;23.998;2023-02-25T14:07:17;19.10;;;10.40;;
12623;SDS011;6377;42.836;23.998;2023-02-25T14:09:55;26.37;;;11.63;;
12623;SDS011;6377;42.836;23.998;2023-02-25T14:12:36;16.53;;;7.40;;
12623;SDS011;6377;42.836;23.998;2023-02-25T14:15:22;61.90;;;33.70;;
12623;SDS011;6377;42.836;23.998;2023-02-25T14:18:11;27.67;;;11.57;;
12623;SDS011;6377;42.836;23.998;2023-02-25T14:20:49;21.73;;;7.93;;
12623;SDS011;6377;42.836;23.998;2023-02-25T14:23:33;22.00;;;9.97;;
12623;SDS011;6377;42.836;23.998;2023-02-25T14:29:03;38.03;;;21.87;;
12623;SDS011;6377;42.836;23.998;2023-02-25T14:31:48;24.60;;;12.40;;
12623;SDS011;6377;42.836;23.998;2023-02-25T14:34:32;19.83;;;8.23;;
12623;SDS011;6377;42.836;23.998;2023-02-25T14:43:08;12.57;;;5.77;;
12623;SDS011;6377;42.836;23.998;2023-02-25T14:45:55;20.43;;;8.33;;
12623;SDS011;6377;42.836;23.998;2023-02-25T14:48:34;14.57;;;6.30;;
12623;SDS011;6377;42.836;23.998;2023-02-25T14:51:20;20.33;;;7.20;;
12623;SDS011;6377;42.836;23.998;2023-02-25T14:54:22;22.47;;;6.67;;
12623;SDS011;6377;42.836;23.998;2023-02-25T15:00:31;99.13;;;44.23;;
12623;SDS011;6377;42.836;23.998;2023-02-25T15:06:25;108.07;;;40.87;;
12623;SDS011;6377;42.836;23.998;2023-02-25T15:11:53;59.37;;;30.27;;
12623;SDS011;6377;42.836;23.998;2023-02-25T15:14:41;34.27;;;16.43;;
12623;SDS011;6377;42.836;23.998;2023-02-25T15:17:39;20.87;;;10.37;;
12623;SDS011;6377;42.836;23.998;2023-02-25T15:20:34;44.13;;;17.80;;
12623;SDS011;6377;42.836;23.998;2023-02-25T15:23:09;57.53;;;33.33;;
12623;SDS011;6377;42.836;23.998;2023-02-25T15:25:42;45.73;;;20.07;;
12623;SDS011;6377;42.836;23.998;2023-02-25T15:28:33;51.00;;;23.97;;
12623;SDS011;6377;42.836;23.998;2023-02-25T15:33:53;46.77;;;17.53;;
12623;SDS011;6377;42.836;23.998;2023-02-25T15:36:40;34.00;;;13.47;;
12623;SDS011;6377;42.836;23.998;2023-02-25T15:39:10;35.83;;;14.73;;
12623;SDS011;6377;42.836;23.998;2023-02-25T15:42:13;31.47;;;13.20;;
12623;SDS011;6377;42.836;23.998;2023-02-25T15:44:41;46.47;;;20.80;;
12623;SDS011;6377;42.836;23.998;2023-02-25T15:47:10;58.47;;;22.80;;
12623;SDS011;6377;42.836;23.998;2023-02-25T15:49:48;114.43;;;43.57;;
12623;SDS011;6377;42.836;23.998;2023-02-25T15:55:18;33.10;;;17.03;;
12623;SDS011;6377;42.836;23.998;2023-02-25T16:01:11;20.27;;;9.97;;
12623;SDS011;6377;42.836;23.998;2023-02-25T16:03:49;25.13;;;12.63;;
12623;SDS011;6377;42.836;23.998;2023-02-25T16:06:16;19.80;;;10.57;;
12623;SDS011;6377;42.836;23.998;2023-02-25T16:08:48;17.13;;;7.97;;
12623;SDS011;6377;42.836;23.998;2023-02-25T16:11:29;25.73;;;10.90;;